sensor_id;sensor_type;location;lat;lon;timestamp;temperature;humidity
35680;DHT22;21803;53.586;10.040;2023-05-10T04:01:35;22.10;42.10
35680;DHT22;21803;53.586;10.040;2023-05-10T04:04:00;22.10;42.10
35680;DHT22;21803;53.586;10.040;2023-05-10T04:06:26;23.40;42.60
35680;DHT22;21803;53.586;10.040;2023-05-10T04:08:51;22.10;42.00
35680;DHT22;21803;53.586;10.040;2023-05-10T04:11:18;22.20;42.00
35680;DHT22;21803;53.586;10.040;2023-05-10T04:13:43;22.20;41.90
35680;DHT22;21803;53.586;10.040;2023-05-10T04:18:38;22.20;41.90
35680;DHT22;21803;53.586;10.040;2023-05-10T04:21:11;25.00;43.20
35680;DHT22;21803;53.586;10.040;2023-05-10T04:23:37;23.70;42.60
35680;DHT22;21803;53.586;10.040;2023-05-10T04:26:02;22.90;42.20
35680;DHT22;21803;53.586;10.040;2023-05-10T04:28:28;22.30;41.90
35680;DHT22;21803;53.586;10.040;2023-05-10T04:31:03;22.30;41.90
35680;DHT22;21803;53.586;10.040;2023-05-10T04:33:30;22.20;41.80
35680;DHT22;21803;53.586;10.040;2023-05-10T04:35:55;22.30;41.90
35680;DHT22;21803;53.586;10.040;2023-05-10T04:38:21;22.30;41.80
35680;DHT22;21803;53.586;10.040;2023-05-10T04:40:46;22.30;41.80
35680;DHT22;21803;53.586;10.040;2023-05-10T04:43:12;22.30;41.80
35680;DHT22;21803;53.586;10.040;2023-05-10T04:45:38;22.30;41.80
35680;DHT22;21803;53.586;10.040;2023-05-10T04:48:04;22.30;41.80
35680;DHT22;21803;53.586;10.040;2023-05-10T04:50:29;22.30;41.70
35680;DHT22;21803;53.586;10.040;2023-05-10T04:52:55;22.30;41.80
35680;DHT22;21803;53.586;10.040;2023-05-10T04:55:21;22.30;41.70
35680;DHT22;21803;53.586;10.040;2023-05-10T04:57:46;22.30;41.60
35680;DHT22;21803;53.586;10.040;2023-05-10T05:00:12;22.30;41.60
35680;DHT22;21803;53.586;10.040;2023-05-10T05:02:38;22.30;41.60
35680;DHT22;21803;53.586;10.040;2023-05-10T05:05:04;22.20;41.50
35680;DHT22;21803;53.586;10.040;2023-05-10T05:07:29;22.30;42.20
35680;DHT22;21803;53.586;10.040;2023-05-10T05:09:56;22.30;41.50
35680;DHT22;21803;53.586;10.040;2023-05-10T05:12:21;22.40;41.50
35680;DHT22;21803;53.586;10.040;2023-05-10T05:14:47;22.40;41.50
35680;DHT22;21803;53.586;10.040;2023-05-10T05:17:12;22.40;41.50
35680;DHT22;21803;53.586;10.040;2023-05-10T05:19:38;22.40;41.50
35680;DHT22;21803;53.586;10.040;2023-05-10T05:22:03;22.30;41.40
35680;DHT22;21803;53.586;10.040;2023-05-10T05:24:29;22.40;41.50
35680;DHT22;21803;53.586;10.040;2023-05-10T05:26:54;22.40;41.50
35680;DHT22;21803;53.586;10.040;2023-05-10T05:29:20;22.40;41.50
35680;DHT22;21803;53.586;10.040;2023-05-10T05:31:45;22.40;41.50
35680;DHT22;21803;53.586;10.040;2023-05-10T05:34:11;22.40;41.40
35680;DHT22;21803;53.586;10.040;2023-05-10T05:36:36;22.40;41.40
35680;DHT22;21803;53.586;10.040;2023-05-10T05:39:05;22.40;41.40
35680;DHT22;21803;53.586;10.040;2023-05-10T05:41:30;22.40;41.40
35680;DHT22;21803;53.586;10.040;2023-05-10T05:43:56;22.40;41.40
35680;DHT22;21803;53.586;10.040;2023-05-10T05:46:21;22.40;41.40
35680;DHT22;21803;53.586;10.040;2023-05-10T05:48:47;22.40;41.30
35680;DHT22;21803;53.586;10.040;2023-05-10T05:51:12;22.50;41.40
35680;DHT22;21803;53.586;10.040;2023-05-10T05:53:38;22.50;41.40
35680;DHT22;21803;53.586;10.040;2023-05-10T05:56:04;22.60;41.40
35680;DHT22;21803;53.586;10.040;2023-05-10T05:58:29;22.50;41.30
35680;DHT22;21803;53.586;10.040;2023-05-10T06:00:55;22.60;41.40
35680;DHT22;21803;53.586;10.040;2023-05-10T06:03:20;22.60;41.40
35680;DHT22;21803;53.586;10.040;2023-05-10T06:05:47;22.60;41.40
35680;DHT22;21803;53.586;10.040;2023-05-10T06:08:13;22.60;41.30
35680;DHT22;21803;53.586;10.040;2023-05-10T06:10:38;22.60;41.30
35680;DHT22;21803;53.586;10.040;2023-05-10T06:13:04;22.60;41.30
35680;DHT22;21803;53.586;10.040;2023-05-10T06:15:29;22.60;41.20
35680;DHT22;21803;53.586;10.040;2023-05-10T06:17:55;22.60;41.20
35680;DHT22;21803;53.586;10.040;2023-05-10T06:20:20;22.70;41.30
35680;DHT22;21803;53.586;10.040;2023-05-10T06:22:46;22.70;41.20
35680;DHT22;21803;53.586;10.040;2023-05-10T06:25:11;22.70;41.20
35680;DHT22;21803;53.586;10.040;2023-05-10T06:27:37;22.70;41.20
35680;DHT22;21803;53.586;10.040;2023-05-10T06:30:03;22.70;41.20
35680;DHT22;21803;53.586;10.040;2023-05-10T06:32:30;22.70;41.20
35680;DHT22;21803;53.586;10.040;2023-05-10T06:34:55;22.60;41.10
35680;DHT22;21803;53.586;10.040;2023-05-10T06:37:21;22.70;41.20
35680;DHT22;21803;53.586;10.040;2023-05-10T06:39:46;22.70;41.20
35680;DHT22;21803;53.586;10.040;2023-05-10T06:42:12;22.70;41.20
35680;DHT22;21803;53.586;10.040;2023-05-10T06:44:37;22.70;41.20
35680;DHT22;21803;53.586;10.040;2023-05-10T06:47:03;22.70;41.20
35680;DHT22;21803;53.586;10.040;2023-05-10T06:49:29;22.70;41.20
35680;DHT22;21803;53.586;10.040;2023-05-10T06:51:56;22.70;41.20
35680;DHT22;21803;53.586;10.040;2023-05-10T06:54:21;22.60;41.20
35680;DHT22;21803;53.586;10.040;2023-05-10T06:56:47;22.70;41.30
35680;DHT22;21803;53.586;10.040;2023-05-10T06:59:12;22.70;41.30
35680;DHT22;21803;53.586;10.040;2023-05-10T07:01:39;22.60;41.20
35680;DHT22;21803;53.586;10.040;2023-05-10T07:04:04;22.70;41.30
35680;DHT22;21803;53.586;10.040;2023-05-10T07:06:30;22.70;41.30
35680;DHT22;21803;53.586;10.040;2023-05-10T07:08:56;22.60;41.30
35680;DHT22;21803;53.586;10.040;2023-05-10T07:11:21;22.60;41.30
35680;DHT22;21803;53.586;10.040;2023-05-10T07:13:47;22.60;41.30
35680;DHT22;21803;53.586;10.040;2023-05-10T07:16:12;22.60;41.30
35680;DHT22;21803;53.586;10.040;2023-05-10T07:18:38;22.60;41.30
35680;DHT22;21803;53.586;10.040;2023-05-10T07:21:03;22.60;41.90
35680;DHT22;21803;53.586;10.040;2023-05-10T07:23:29;22.60;41.30
35680;DHT22;21803;53.586;10.040;2023-05-10T07:25:55;22.60;41.30
35680;DHT22;21803;53.586;10.040;2023-05-10T07:28:23;22.60;41.30
35680;DHT22;21803;53.586;10.040;2023-05-10T07:30:49;22.60;41.30
35680;DHT22;21803;53.586;10.040;2023-05-10T07:33:15;22.60;41.30
35680;DHT22;21803;53.586;10.040;2023-05-10T07:35:41;22.60;41.30
35680;DHT22;21803;53.586;10.040;2023-05-10T07:38:06;22.60;41.30
35680;DHT22;21803;53.586;10.040;2023-05-10T07:40:32;22.60;41.30
35680;DHT22;21803;53.586;10.040;2023-05-10T07:42:58;22.60;41.30
35680;DHT22;21803;53.586;10.040;2023-05-10T07:45:25;22.50;41.30
35680;DHT22;21803;53.586;10.040;2023-05-10T07:47:50;22.60;41.40
35680;DHT22;21803;53.586;10.040;2023-05-10T07:50:16;22.60;41.40
35680;DHT22;21803;53.586;10.040;2023-05-10T07:52:41;22.60;41.40
35680;DHT22;21803;53.586;10.040;2023-05-10T07:55:07;22.60;41.40
35680;DHT22;21803;53.586;10.040;2023-05-10T07:57:34;22.60;41.40
35680;DHT22;21803;53.586;10.040;2023-05-10T07:59:59;22.60;41.40
35680;DHT22;21803;53.586;10.040;2023-05-10T08:02:25;22.60;41.40
35680;DHT22;21803;53.586;10.040;2023-05-10T08:04:50;22.60;41.40
35680;DHT22;21803;53.586;10.040;2023-05-10T08:07:17;22.60;41.40
35680;DHT22;21803;53.586;10.040;2023-05-10T08:09:42;22.60;41.40
35680;DHT22;21803;53.586;10.040;2023-05-10T08:12:08;22.60;41.40
35680;DHT22;21803;53.586;10.040;2023-05-10T08:14:33;22.60;41.40
35680;DHT22;21803;53.586;10.040;2023-05-10T08:16:59;22.60;41.40
35680;DHT22;21803;53.586;10.040;2023-05-10T08:19:25;22.60;41.40
35680;DHT22;21803;53.586;10.040;2023-05-10T08:21:50;22.50;41.40
35680;DHT22;21803;53.586;10.040;2023-05-10T08:24:16;22.60;41.50
35680;DHT22;21803;53.586;10.040;2023-05-10T08:26:41;22.50;41.40
35680;DHT22;21803;53.586;10.040;2023-05-10T08:29:07;22.50;41.40
35680;DHT22;21803;53.586;10.040;2023-05-10T08:31:32;22.50;41.50
35680;DHT22;21803;53.586;10.040;2023-05-10T08:33:58;22.50;41.50
35680;DHT22;21803;53.586;10.040;2023-05-10T08:36:23;22.50;42.10
35680;DHT22;21803;53.586;10.040;2023-05-10T08:38:53;22.50;41.50
35680;DHT22;21803;53.586;10.040;2023-05-10T08:41:20;22.50;41.50
35680;DHT22;21803;53.586;10.040;2023-05-10T08:43:46;22.50;41.50
35680;DHT22;21803;53.586;10.040;2023-05-10T08:46:19;22.50;41.50
35680;DHT22;21803;53.586;10.040;2023-05-10T08:48:45;22.50;41.50
35680;DHT22;21803;53.586;10.040;2023-05-10T08:51:17;22.40;41.50
35680;DHT22;21803;53.586;10.040;2023-05-10T08:53:45;22.50;41.50
35680;DHT22;21803;53.586;10.040;2023-05-10T08:56:11;22.50;41.60
35680;DHT22;21803;53.586;10.040;2023-05-10T08:58:37;22.50;41.60
35680;DHT22;21803;53.586;10.040;2023-05-10T09:01:04;22.50;41.60
35680;DHT22;21803;53.586;10.040;2023-05-10T09:03:30;22.50;41.60
35680;DHT22;21803;53.586;10.040;2023-05-10T09:05:56;22.50;41.60
35680;DHT22;21803;53.586;10.040;2023-05-10T09:08:23;22.50;41.60
35680;DHT22;21803;53.586;10.040;2023-05-10T09:10:53;22.50;41.60
35680;DHT22;21803;53.586;10.040;2023-05-10T09:13:19;22.50;41.60
35680;DHT22;21803;53.586;10.040;2023-05-10T09:15:46;22.40;41.50
35680;DHT22;21803;53.586;10.040;2023-05-10T09:18:12;22.50;41.60
35680;DHT22;21803;53.586;10.040;2023-05-10T09:20:37;22.50;41.60
35680;DHT22;21803;53.586;10.040;2023-05-10T09:23:03;22.50;41.60
35680;DHT22;21803;53.586;10.040;2023-05-10T09:25:29;22.50;41.60
35680;DHT22;21803;53.586;10.040;2023-05-10T09:27:54;22.50;41.60
35680;DHT22;21803;53.586;10.040;2023-05-10T09:30:25;22.50;41.60
35680;DHT22;21803;53.586;10.040;2023-05-10T09:32:51;22.40;41.60
35680;DHT22;21803;53.586;10.040;2023-05-10T09:35:19;22.50;41.60
35680;DHT22;21803;53.586;10.040;2023-05-10T09:37:47;22.40;41.60
35680;DHT22;21803;53.586;10.040;2023-05-10T09:42:42;22.50;41.60
35680;DHT22;21803;53.586;10.040;2023-05-10T09:45:15;22.50;41.60
35680;DHT22;21803;53.586;10.040;2023-05-10T09:47:41;22.50;41.60
35680;DHT22;21803;53.586;10.040;2023-05-10T09:50:06;22.50;41.70
35680;DHT22;21803;53.586;10.040;2023-05-10T09:52:51;22.50;41.60
35680;DHT22;21803;53.586;10.040;2023-05-10T09:55:38;22.40;41.60
35680;DHT22;21803;53.586;10.040;2023-05-10T09:58:04;22.50;41.60
35680;DHT22;21803;53.586;10.040;2023-05-10T10:00:36;22.40;41.60
35680;DHT22;21803;53.586;10.040;2023-05-10T10:03:02;22.50;41.70
35680;DHT22;21803;53.586;10.040;2023-05-10T10:05:40;22.40;41.60
35680;DHT22;21803;53.586;10.040;2023-05-10T10:08:06;22.40;41.60
35680;DHT22;21803;53.586;10.040;2023-05-10T10:10:32;22.40;41.60
35680;DHT22;21803;53.586;10.040;2023-05-10T10:12:58;22.40;41.60
35680;DHT22;21803;53.586;10.040;2023-05-10T10:15:25;22.40;41.60
35680;DHT22;21803;53.586;10.040;2023-05-10T10:17:51;22.40;41.70
35680;DHT22;21803;53.586;10.040;2023-05-10T10:20:18;22.40;41.70
35680;DHT22;21803;53.586;10.040;2023-05-10T10:22:44;22.40;41.70
35680;DHT22;21803;53.586;10.040;2023-05-10T10:25:15;22.40;41.70
35680;DHT22;21803;53.586;10.040;2023-05-10T10:33:40;22.40;41.70
35680;DHT22;21803;53.586;10.040;2023-05-10T10:36:15;22.40;41.70
35680;DHT22;21803;53.586;10.040;2023-05-10T10:52:36;22.40;41.70
35680;DHT22;21803;53.586;10.040;2023-05-10T10:55:13;22.40;41.70
35680;DHT22;21803;53.586;10.040;2023-05-10T10:57:49;22.40;41.70
35680;DHT22;21803;53.586;10.040;2023-05-10T11:00:46;22.40;42.30
35680;DHT22;21803;53.586;10.040;2023-05-10T11:03:13;22.40;41.70
35680;DHT22;21803;53.586;10.040;2023-05-10T11:05:49;22.40;41.80
35680;DHT22;21803;53.586;10.040;2023-05-10T11:08:27;22.40;41.80
35680;DHT22;21803;53.586;10.040;2023-05-10T11:13:28;22.50;41.80
35680;DHT22;21803;53.586;10.040;2023-05-10T11:15:55;22.40;42.30
35680;DHT22;21803;53.586;10.040;2023-05-10T11:18:29;22.40;41.70
35680;DHT22;21803;53.586;10.040;2023-05-10T11:20:59;22.50;41.80
35680;DHT22;21803;53.586;10.040;2023-05-10T11:23:32;22.50;41.80
35680;DHT22;21803;53.586;10.040;2023-05-10T11:25:59;22.50;41.80
35680;DHT22;21803;53.586;10.040;2023-05-10T11:28:26;22.50;41.80
35680;DHT22;21803;53.586;10.040;2023-05-10T11:30:52;22.40;41.80
35680;DHT22;21803;53.586;10.040;2023-05-10T11:33:19;22.50;41.80
35680;DHT22;21803;53.586;10.040;2023-05-10T11:35:45;22.50;41.90
35680;DHT22;21803;53.586;10.040;2023-05-10T11:38:12;22.40;42.50
35680;DHT22;21803;53.586;10.040;2023-05-10T11:40:38;22.50;42.80
35680;DHT22;21803;53.586;10.040;2023-05-10T11:43:05;22.50;43.90
35680;DHT22;21803;53.586;10.040;2023-05-10T11:45:35;22.50;43.90
35680;DHT22;21803;53.586;10.040;2023-05-10T11:48:01;22.50;44.60
35680;DHT22;21803;53.586;10.040;2023-05-10T11:50:26;22.50;43.80
35680;DHT22;21803;53.586;10.040;2023-05-10T11:52:56;22.50;43.50
35680;DHT22;21803;53.586;10.040;2023-05-10T11:55:22;22.60;43.30
35680;DHT22;21803;53.586;10.040;2023-05-10T11:57:53;22.60;43.00
35680;DHT22;21803;53.586;10.040;2023-05-10T12:00:19;22.50;42.90
35680;DHT22;21803;53.586;10.040;2023-05-10T12:02:45;22.50;42.70
35680;DHT22;21803;53.586;10.040;2023-05-10T12:05:11;22.50;42.80
35680;DHT22;21803;53.586;10.040;2023-05-10T12:07:36;22.60;42.90
35680;DHT22;21803;53.586;10.040;2023-05-10T12:10:12;22.50;43.70
35680;DHT22;21803;53.586;10.040;2023-05-10T12:12:45;22.50;44.40
35680;DHT22;21803;53.586;10.040;2023-05-10T12:15:18;22.50;45.20
35680;DHT22;21803;53.586;10.040;2023-05-10T12:17:45;22.60;46.20
35680;DHT22;21803;53.586;10.040;2023-05-10T12:20:15;22.60;45.90
35680;DHT22;21803;53.586;10.040;2023-05-10T12:22:47;22.60;45.90
35680;DHT22;21803;53.586;10.040;2023-05-10T12:25:12;22.60;46.00
35680;DHT22;21803;53.586;10.040;2023-05-10T12:27:38;22.60;46.10
35680;DHT22;21803;53.586;10.040;2023-05-10T12:30:04;22.60;46.10
35680;DHT22;21803;53.586;10.040;2023-05-10T12:32:43;22.60;46.00
35680;DHT22;21803;53.586;10.040;2023-05-10T12:35:09;22.60;45.90
35680;DHT22;21803;53.586;10.040;2023-05-10T12:37:36;22.60;45.90
35680;DHT22;21803;53.586;10.040;2023-05-10T12:40:09;21.70;45.40
35680;DHT22;21803;53.586;10.040;2023-05-10T12:42:36;22.60;45.90
35680;DHT22;21803;53.586;10.040;2023-05-10T12:45:03;22.60;45.90
35680;DHT22;21803;53.586;10.040;2023-05-10T12:47:29;22.60;46.00
35680;DHT22;21803;53.586;10.040;2023-05-10T12:49:55;22.60;46.00
35680;DHT22;21803;53.586;10.040;2023-05-10T12:52:21;22.60;46.00
35680;DHT22;21803;53.586;10.040;2023-05-10T12:54:46;22.60;46.40
35680;DHT22;21803;53.586;10.040;2023-05-10T12:57:13;22.60;46.60
35680;DHT22;21803;53.586;10.040;2023-05-10T12:59:38;22.60;46.90
35680;DHT22;21803;53.586;10.040;2023-05-10T13:02:04;22.70;47.20
35680;DHT22;21803;53.586;10.040;2023-05-10T13:04:30;22.70;47.70
35680;DHT22;21803;53.586;10.040;2023-05-10T13:06:55;22.70;48.00
35680;DHT22;21803;53.586;10.040;2023-05-10T13:09:25;22.70;48.30
35680;DHT22;21803;53.586;10.040;2023-05-10T13:11:51;22.70;48.50
35680;DHT22;21803;53.586;10.040;2023-05-10T13:14:18;22.60;48.60
35680;DHT22;21803;53.586;10.040;2023-05-10T13:16:46;22.70;48.80
35680;DHT22;21803;53.586;10.040;2023-05-10T13:19:12;22.70;48.90
35680;DHT22;21803;53.586;10.040;2023-05-10T13:21:37;22.70;49.20
35680;DHT22;21803;53.586;10.040;2023-05-10T13:24:03;22.70;49.30
35680;DHT22;21803;53.586;10.040;2023-05-10T13:26:29;22.70;49.70
35680;DHT22;21803;53.586;10.040;2023-05-10T13:28:54;22.70;49.90
35680;DHT22;21803;53.586;10.040;2023-05-10T13:31:21;22.70;50.20
35680;DHT22;21803;53.586;10.040;2023-05-10T13:33:46;22.70;50.10
35680;DHT22;21803;53.586;10.040;2023-05-10T13:36:12;22.80;50.20
35680;DHT22;21803;53.586;10.040;2023-05-10T13:38:37;22.80;49.80
35680;DHT22;21803;53.586;10.040;2023-05-10T13:41:03;22.80;49.90
35680;DHT22;21803;53.586;10.040;2023-05-10T13:43:29;22.80;49.90
35680;DHT22;21803;53.586;10.040;2023-05-10T13:45:55;22.80;50.10
35680;DHT22;21803;53.586;10.040;2023-05-10T13:48:20;22.70;50.10
35680;DHT22;21803;53.586;10.040;2023-05-10T13:50:46;22.80;50.20
35680;DHT22;21803;53.586;10.040;2023-05-10T13:53:12;22.80;50.50
35680;DHT22;21803;53.586;10.040;2023-05-10T13:55:38;22.80;50.20
35680;DHT22;21803;53.586;10.040;2023-05-10T13:58:03;22.80;50.20
35680;DHT22;21803;53.586;10.040;2023-05-10T14:00:29;22.80;50.30
35680;DHT22;21803;53.586;10.040;2023-05-10T14:02:55;22.80;50.70
35680;DHT22;21803;53.586;10.040;2023-05-10T14:05:20;22.80;50.30
35680;DHT22;21803;53.586;10.040;2023-05-10T14:07:46;22.80;50.30
35680;DHT22;21803;53.586;10.040;2023-05-10T14:10:11;22.80;50.60
35680;DHT22;21803;53.586;10.040;2023-05-10T14:12:37;22.80;50.90
35680;DHT22;21803;53.586;10.040;2023-05-10T14:15:03;22.70;50.70
35680;DHT22;21803;53.586;10.040;2023-05-10T14:17:31;22.70;50.30
35680;DHT22;21803;53.586;10.040;2023-05-10T14:19:56;22.70;50.10
35680;DHT22;21803;53.586;10.040;2023-05-10T14:22:22;22.80;50.00
35680;DHT22;21803;53.586;10.040;2023-05-10T14:24:48;22.80;49.90
35680;DHT22;21803;53.586;10.040;2023-05-10T14:27:14;22.70;49.80
35680;DHT22;21803;53.586;10.040;2023-05-10T14:29:39;22.70;49.80
35680;DHT22;21803;53.586;10.040;2023-05-10T14:32:05;22.70;49.70
35680;DHT22;21803;53.586;10.040;2023-05-10T14:34:31;22.80;49.70
35680;DHT22;21803;53.586;10.040;2023-05-10T14:36:56;22.70;49.60
35680;DHT22;21803;53.586;10.040;2023-05-10T14:39:22;22.80;49.60
35680;DHT22;21803;53.586;10.040;2023-05-10T14:41:48;22.70;49.50
35680;DHT22;21803;53.586;10.040;2023-05-10T14:44:14;22.80;49.50
35680;DHT22;21803;53.586;10.040;2023-05-10T14:46:40;22.80;49.50
35680;DHT22;21803;53.586;10.040;2023-05-10T14:49:07;22.80;49.50
35680;DHT22;21803;53.586;10.040;2023-05-10T14:51:33;22.70;49.40
35680;DHT22;21803;53.586;10.040;2023-05-10T14:53:58;22.80;49.40
35680;DHT22;21803;53.586;10.040;2023-05-10T14:56:24;22.70;49.30
35680;DHT22;21803;53.586;10.040;2023-05-10T14:58:51;22.70;49.40
35680;DHT22;21803;53.586;10.040;2023-05-10T15:01:16;22.80;49.40
35680;DHT22;21803;53.586;10.040;2023-05-10T15:03:42;22.70;49.30
35680;DHT22;21803;53.586;10.040;2023-05-10T15:06:08;22.70;49.30
35680;DHT22;21803;53.586;10.040;2023-05-10T15:08:34;22.70;49.30
35680;DHT22;21803;53.586;10.040;2023-05-10T15:10:59;22.80;49.90
35680;DHT22;21803;53.586;10.040;2023-05-10T15:13:25;22.80;49.30
35680;DHT22;21803;53.586;10.040;2023-05-10T15:15:50;22.80;49.30
35680;DHT22;21803;53.586;10.040;2023-05-10T15:18:16;22.80;49.20
35680;DHT22;21803;53.586;10.040;2023-05-10T15:20:41;22.80;49.30
35680;DHT22;21803;53.586;10.040;2023-05-10T15:23:07;22.80;49.30
35680;DHT22;21803;53.586;10.040;2023-05-10T15:25:33;22.80;49.30
35680;DHT22;21803;53.586;10.040;2023-05-10T15:28:02;22.70;49.20
35680;DHT22;21803;53.586;10.040;2023-05-10T15:30:28;22.80;49.30
35680;DHT22;21803;53.586;10.040;2023-05-10T15:32:54;22.80;49.30
35680;DHT22;21803;53.586;10.040;2023-05-10T15:35:20;22.80;49.30
35680;DHT22;21803;53.586;10.040;2023-05-10T15:37:47;22.80;49.30
35680;DHT22;21803;53.586;10.040;2023-05-10T15:40:13;22.80;49.30
35680;DHT22;21803;53.586;10.040;2023-05-10T15:42:38;22.80;49.30
35680;DHT22;21803;53.586;10.040;2023-05-10T15:45:04;22.80;49.30
35680;DHT22;21803;53.586;10.040;2023-05-10T15:47:30;22.80;49.30
35680;DHT22;21803;53.586;10.040;2023-05-10T15:49:56;22.80;49.30
35680;DHT22;21803;53.586;10.040;2023-05-10T15:52:21;22.80;49.30
35680;DHT22;21803;53.586;10.040;2023-05-10T15:54:48;22.80;49.40
35680;DHT22;21803;53.586;10.040;2023-05-10T15:57:13;22.80;49.40
35680;DHT22;21803;53.586;10.040;2023-05-10T15:59:39;22.80;49.30
35680;DHT22;21803;53.586;10.040;2023-05-10T16:02:06;22.80;49.00
35680;DHT22;21803;53.586;10.040;2023-05-10T16:04:31;22.70;48.90
35680;DHT22;21803;53.586;10.040;2023-05-10T16:06:57;22.70;48.90
35680;DHT22;21803;53.586;10.040;2023-05-10T16:09:22;22.70;49.00
35680;DHT22;21803;53.586;10.040;2023-05-10T16:11:48;22.90;49.20
35680;DHT22;21803;53.586;10.040;2023-05-10T16:14:13;22.80;49.30
35680;DHT22;21803;53.586;10.040;2023-05-10T16:16:44;22.70;49.00
35680;DHT22;21803;53.586;10.040;2023-05-10T16:19:10;22.70;49.00
35680;DHT22;21803;53.586;10.040;2023-05-10T16:21:35;22.90;49.00
35680;DHT22;21803;53.586;10.040;2023-05-10T16:24:02;22.80;48.90
35680;DHT22;21803;53.586;10.040;2023-05-10T16:26:29;22.70;48.70
35680;DHT22;21803;53.586;10.040;2023-05-10T16:28:54;22.70;48.70
35680;DHT22;21803;53.586;10.040;2023-05-10T16:31:20;22.70;48.60
35680;DHT22;21803;53.586;10.040;2023-05-10T16:33:46;22.70;48.50
35680;DHT22;21803;53.586;10.040;2023-05-10T16:36:11;22.70;48.50
35680;DHT22;21803;53.586;10.040;2023-05-10T16:38:37;22.70;48.90
35680;DHT22;21803;53.586;10.040;2023-05-10T16:41:02;22.70;48.40
35680;DHT22;21803;53.586;10.040;2023-05-10T16:43:29;22.60;48.40
35680;DHT22;21803;53.586;10.040;2023-05-10T16:45:55;22.70;48.40
35680;DHT22;21803;53.586;10.040;2023-05-10T16:48:20;22.60;48.30
35680;DHT22;21803;53.586;10.040;2023-05-10T16:50:46;22.70;48.30
35680;DHT22;21803;53.586;10.040;2023-05-10T16:53:12;22.60;48.30
35680;DHT22;21803;53.586;10.040;2023-05-10T16:55:38;22.60;48.30
35680;DHT22;21803;53.586;10.040;2023-05-10T16:58:04;22.60;48.20
35680;DHT22;21803;53.586;10.040;2023-05-10T17:00:29;22.60;48.20
35680;DHT22;21803;53.586;10.040;2023-05-10T17:02:55;22.60;48.20
35680;DHT22;21803;53.586;10.040;2023-05-10T17:05:21;22.60;48.10
35680;DHT22;21803;53.586;10.040;2023-05-10T17:07:46;22.60;48.10
35680;DHT22;21803;53.586;10.040;2023-05-10T17:10:12;22.60;48.10
35680;DHT22;21803;53.586;10.040;2023-05-10T17:12:38;22.60;48.00
35680;DHT22;21803;53.586;10.040;2023-05-10T17:15:04;22.60;48.10
35680;DHT22;21803;53.586;10.040;2023-05-10T17:17:31;22.60;48.70
35680;DHT22;21803;53.586;10.040;2023-05-10T17:19:56;22.50;48.20
35680;DHT22;21803;53.586;10.040;2023-05-10T17:22:23;22.60;48.50
35680;DHT22;21803;53.586;10.040;2023-05-10T17:24:49;22.70;48.70
35680;DHT22;21803;53.586;10.040;2023-05-10T17:27:15;22.70;48.70
35680;DHT22;21803;53.586;10.040;2023-05-10T17:29:40;22.60;48.70
35680;DHT22;21803;53.586;10.040;2023-05-10T17:32:06;22.70;48.70
35680;DHT22;21803;53.586;10.040;2023-05-10T17:34:34;22.70;48.70
35680;DHT22;21803;53.586;10.040;2023-05-10T17:37:00;22.70;48.80
35680;DHT22;21803;53.586;10.040;2023-05-10T17:39:26;22.60;48.70
35680;DHT22;21803;53.586;10.040;2023-05-10T17:41:52;22.70;48.70
35680;DHT22;21803;53.586;10.040;2023-05-10T17:44:17;22.70;48.70
35680;DHT22;21803;53.586;10.040;2023-05-10T17:46:43;22.60;48.70
35680;DHT22;21803;53.586;10.040;2023-05-10T17:49:09;22.60;48.60
35680;DHT22;21803;53.586;10.040;2023-05-10T17:51:34;22.70;48.70
35680;DHT22;21803;53.586;10.040;2023-05-10T17:54:00;22.70;48.70
35680;DHT22;21803;53.586;10.040;2023-05-10T17:56:25;22.70;48.70
35680;DHT22;21803;53.586;10.040;2023-05-10T17:58:51;22.70;48.60
35680;DHT22;21803;53.586;10.040;2023-05-10T18:01:16;22.60;48.60
35680;DHT22;21803;53.586;10.040;2023-05-10T18:03:42;22.70;48.50
35680;DHT22;21803;53.586;10.040;2023-05-10T18:06:07;22.70;48.50
35680;DHT22;21803;53.586;10.040;2023-05-10T18:08:33;22.60;48.40
35680;DHT22;21803;53.586;10.040;2023-05-10T18:10:59;22.60;48.40
35680;DHT22;21803;53.586;10.040;2023-05-10T18:13:24;22.60;48.40
35680;DHT22;21803;53.586;10.040;2023-05-10T18:15:51;22.60;48.40
35680;DHT22;21803;53.586;10.040;2023-05-10T18:18:16;22.70;48.40
35680;DHT22;21803;53.586;10.040;2023-05-10T18:20:42;22.60;48.40
35680;DHT22;21803;53.586;10.040;2023-05-10T18:23:08;22.60;48.40
35680;DHT22;21803;53.586;10.040;2023-05-10T18:25:33;22.60;48.40
35680;DHT22;21803;53.586;10.040;2023-05-10T18:27:59;22.60;48.40
35680;DHT22;21803;53.586;10.040;2023-05-10T18:30:24;22.60;48.40
35680;DHT22;21803;53.586;10.040;2023-05-10T18:32:50;22.60;48.40
35680;DHT22;21803;53.586;10.040;2023-05-10T18:35:16;22.60;48.30
35680;DHT22;21803;53.586;10.040;2023-05-10T18:37:41;22.60;48.30
35680;DHT22;21803;53.586;10.040;2023-05-10T18:40:07;22.60;48.30
35680;DHT22;21803;53.586;10.040;2023-05-10T18:42:39;22.50;48.30
35680;DHT22;21803;53.586;10.040;2023-05-10T18:45:05;22.60;48.30
35680;DHT22;21803;53.586;10.040;2023-05-10T18:47:31;22.60;48.30
35680;DHT22;21803;53.586;10.040;2023-05-10T18:49:56;22.60;48.30
35680;DHT22;21803;53.586;10.040;2023-05-10T18:52:22;22.60;48.30
35680;DHT22;21803;53.586;10.040;2023-05-10T18:54:48;22.50;48.20
35680;DHT22;21803;53.586;10.040;2023-05-10T18:57:14;22.50;48.20
35680;DHT22;21803;53.586;10.040;2023-05-10T18:59:39;22.50;48.20
35680;DHT22;21803;53.586;10.040;2023-05-10T19:02:05;22.50;48.20
35680;DHT22;21803;53.586;10.040;2023-05-10T19:04:30;22.50;48.20
35680;DHT22;21803;53.586;10.040;2023-05-10T19:06:56;22.60;48.30
35680;DHT22;21803;53.586;10.040;2023-05-10T19:09:22;22.50;48.20
35680;DHT22;21803;53.586;10.040;2023-05-10T19:11:48;22.50;48.20
35680;DHT22;21803;53.586;10.040;2023-05-10T19:14:13;22.50;48.20
35680;DHT22;21803;53.586;10.040;2023-05-10T19:16:39;22.50;48.20
35680;DHT22;21803;53.586;10.040;2023-05-10T19:19:04;22.60;48.30
35680;DHT22;21803;53.586;10.040;2023-05-10T19:21:30;22.50;48.20
35680;DHT22;21803;53.586;10.040;2023-05-10T19:23:55;22.50;48.20
35680;DHT22;21803;53.586;10.040;2023-05-10T19:26:22;22.60;48.20
35680;DHT22;21803;53.586;10.040;2023-05-10T19:28:50;22.50;48.20
35680;DHT22;21803;53.586;10.040;2023-05-10T19:31:16;22.40;48.20
35680;DHT22;21803;53.586;10.040;2023-05-10T19:33:41;22.50;48.20
35680;DHT22;21803;53.586;10.040;2023-05-10T19:36:07;22.50;48.20
35680;DHT22;21803;53.586;10.040;2023-05-10T19:38:33;22.50;48.20